Iris Victoria — V7TS8 — position and weather

sailwx.info

Track history (hours):
 
Tides and Currents Weather Stations Pressure Air Temp Water Temp Dewpoint Dewpoint Depression Visibility Wind Speed Wind Dir Waves Ship Positions

Iris Victoria

Last reported at 2016-Jan-31 23:30 UTC. Time now 2016-Feb-09 09:51 UTC.
Position N 50°24' W 000°34'.
Warning: this ship's position is 8 days out of date.

Length 228 m; draft 13.2 m.

Type: Tanker. MMSI: 538003876.

Date/timePositionNaut miles runAvg speedWind from/ knotsBaromVisibWave heightAir tempDewpointWater temp
2016-Jan-31 23:30N 50°24' W 000°34'10 9.9
2016-Jan-31 22:32N 50°26' W 000°19'1211.1
2016-Jan-31 21:29N 50°30' W 000°02'1111.8
2016-Jan-31 20:33N 50°33' E 000°15'1312.1
2016-Jan-31 19:30N 50°36' E 000°35'1111.8
2016-Jan-31 18:33N 50°42' E 000°49'1111.0
2016-Jan-31 17:33N 50°48' E 001°04'1010.3
2016-Jan-31 16:33N 50°54' E 001°17'10 9.6
2016-Jan-31 15:33N 51°01' E 001°27'1010.2
2016-Jan-31 14:33N 51°09' E 001°38'1111.3
2016-Jan-31 13:34N 51°18' E 001°49'1010.5
2016-Jan-31 12:34N 51°24' E 002°03'1211.4
2016-Jan-31 11:28N 51°21' E 002°22'1312.2
2016-Jan-31 10:26N 51°23' E 002°42'910.2
2016-Jan-31 09:33N 51°25' E 002°56'1312.8
2016-Jan-31 08:33N 51°25' E 003°16'1212.0
2016-Jan-31 07:34N 51°26' E 003°35'1010.2
2016-Jan-31 06:33N 51°21' E 003°50'9 8.8
2016-Jan-31 05:34N 51°26' E 004°02'7 7.2
2016-Jan-31 04:33N 51°23' E 004°13'4 4.0
2016-Jan-31 03:33N 51°21' E 004°17'0 0.5
2016-Jan-31 02:33N 51°20' E 004°18'4 4.3
2016-Jan-31 01:31N 51°16' E 004°21'0 0.0
2016-Jan-31 00:28N 51°16' E 004°21'0 0.0
2016-Jan-30 23:31N 51°16' E 004°21'0 0.0
2016-Jan-30 22:31N 51°16' E 004°21'0 0.0
2016-Jan-30 21:31N 51°16' E 004°21'0 0.0
2016-Jan-30 20:31N 51°16' E 004°21'0 0.0
2016-Jan-30 19:31N 51°16' E 004°21'0 0.0
2016-Jan-30 18:31N 51°16' E 004°21'0 0.0
2016-Jan-30 17:28N 51°16' E 004°21'0 0.0
2016-Jan-30 16:28N 51°16' E 004°21'0 0.0
2016-Jan-30 15:31N 51°16' E 004°21'0 0.0
2016-Jan-30 14:31N 51°16' E 004°21'0 0.0
2016-Jan-30 13:31N 51°16' E 004°21'0 0.0
2016-Jan-30 12:31N 51°16' E 004°21'0 0.0
2016-Jan-30 11:31N 51°16' E 004°21'0 0.0
2016-Jan-30 10:28N 51°16' E 004°21'0 0.0
2016-Jan-30 09:31N 51°16' E 004°21'0 0.0
2016-Jan-30 08:28N 51°16' E 004°21'0 0.0
2016-Jan-30 07:31N 51°16' E 004°21'0 0.0
2016-Jan-30 06:31N 51°16' E 004°21'0 0.0
2016-Jan-30 05:31N 51°16' E 004°21'0 0.0
2016-Jan-30 04:31N 51°16' E 004°21'0 0.0
2016-Jan-30 03:31N 51°16' E 004°21'0 0.0
2016-Jan-30 02:31N 51°16' E 004°21'0 0.0
2016-Jan-30 01:31N 51°16' E 004°21'0 0.0
2016-Jan-30 00:31N 51°16' E 004°21'0 0.0
2016-Jan-29 23:31N 51°16' E 004°21'0 0.0
2016-Jan-29 22:28N 51°16' E 004°21'0 0.0
2016-Jan-29 21:31N 51°16' E 004°21'0 0.0
2016-Jan-29 20:31N 51°16' E 004°21'0 0.0
2016-Jan-29 19:31N 51°16' E 004°21'0 0.0
2016-Jan-29 18:31N 51°16' E 004°21'0 0.0
2016-Jan-29 17:31N 51°16' E 004°21'0 0.0
2016-Jan-29 16:31N 51°16' E 004°21'0 0.0
2016-Jan-29 15:28N 51°16' E 004°21'0 0.0
2016-Jan-29 14:31N 51°16' E 004°21'0 0.0
2016-Jan-29 13:31N 51°16' E 004°21'0 0.0
2016-Jan-29 12:22N 51°16' E 004°21'0 0.0
2016-Jan-29 11:28N 51°16' E 004°21'0 0.0
2016-Jan-29 10:28N 51°16' E 004°21'0 0.0
2016-Jan-29 09:31N 51°16' E 004°21'0 0.0
2016-Jan-29 08:25N 51°16' E 004°21'0 0.0
2016-Jan-29 07:31N 51°16' E 004°21'0 0.0
2016-Jan-29 06:31N 51°16' E 004°21'0 0.0
2016-Jan-29 05:31N 51°16' E 004°21'0 0.0
2016-Jan-29 04:28N 51°16' E 004°21'0 0.0
2016-Jan-29 03:31N 51°16' E 004°21'0 0.0
2016-Jan-29 02:31N 51°16' E 004°21'0 0.0
2016-Jan-29 01:31N 51°16' E 004°21'0 0.0
2016-Jan-29 00:31N 51°16' E 004°21'0 0.0
2016-Jan-28 23:31N 51°16' E 004°21'0 0.0
2016-Jan-28 22:31N 51°16' E 004°21'0 0.0
2016-Jan-28 21:31N 51°16' E 004°21'0 0.0
2016-Jan-28 20:31N 51°16' E 004°21'0 0.0
2016-Jan-28 19:28N 51°16' E 004°21'0 0.0
2016-Jan-28 18:31N 51°16' E 004°21'0 0.0
2016-Jan-28 17:31N 51°16' E 004°21'0 0.0
2016-Jan-28 16:28N 51°16' E 004°21'0 0.0
2016-Jan-28 15:31N 51°16' E 004°21'0 0.0
2016-Jan-28 14:31N 51°16' E 004°21'0 0.0
2016-Jan-28 13:31N 51°16' E 004°21'0 0.0
2016-Jan-28 12:31N 51°16' E 004°21'0 0.0
2016-Jan-28 11:25N 51°16' E 004°21'0 0.0
2016-Jan-28 10:31N 51°16' E 004°21'0 0.0
2016-Jan-28 09:31N 51°16' E 004°21'0 0.0
2016-Jan-28 08:31N 51°16' E 004°21'0 0.0
2016-Jan-28 07:31N 51°16' E 004°21'0 0.0
2016-Jan-28 06:28N 51°16' E 004°21'0 0.0
2016-Jan-28 05:31N 51°16' E 004°21'0 0.0
2016-Jan-28 04:28N 51°16' E 004°21'0 0.0
2016-Jan-28 03:25N 51°16' E 004°21'0 0.0
2016-Jan-28 02:31N 51°16' E 004°21'0 0.0
2016-Jan-28 01:28N 51°16' E 004°21'0 0.0
2016-Jan-28 00:31N 51°16' E 004°21'0 0.0
2016-Jan-27 23:31N 51°16' E 004°21'0 0.0
2016-Jan-27 22:31N 51°16' E 004°21'0 0.0
2016-Jan-27 21:31N 51°16' E 004°21'0 0.0
2016-Jan-27 20:28N 51°16' E 004°21'0 0.0
2016-Jan-27 19:31N 51°16' E 004°21'0 0.0
2016-Jan-27 18:31N 51°16' E 004°21'0 0.0
2016-Jan-27 17:31N 51°16' E 004°21'0 0.0
2016-Jan-27 16:25N 51°16' E 004°21'0 0.0
2016-Jan-27 15:31N 51°16' E 004°21'0 0.0
2016-Jan-27 14:31N 51°16' E 004°21'0 0.0
2016-Jan-27 13:31N 51°16' E 004°21'0 0.0
2016-Jan-27 12:31N 51°16' E 004°21'0 0.0
2016-Jan-27 11:19N 51°16' E 004°21'0 0.0
2016-Jan-27 10:31N 51°16' E 004°21'0 0.0
2016-Jan-27 09:22N 51°16' E 004°21'0 0.0
2016-Jan-27 08:13N 51°16' E 004°21'0 0.0
2016-Jan-27 07:31N 51°16' E 004°21'0 0.0
2016-Jan-27 06:28N 51°16' E 004°21'0 0.0
2016-Jan-27 05:28N 51°16' E 004°21'0 0.0
2016-Jan-27 04:31N 51°16' E 004°21'0 0.0
2016-Jan-27 03:28N 51°16' E 004°21'0 0.0
2016-Jan-27 02:31N 51°16' E 004°21'0 0.0
2016-Jan-27 01:31N 51°16' E 004°21'0 0.0
2016-Jan-27 00:31N 51°16' E 004°21'0 0.0
2016-Jan-26 23:31N 51°16' E 004°21'0 0.0
2016-Jan-26 22:31N 51°16' E 004°21'0 0.0
2016-Jan-26 21:31N 51°16' E 004°21'0 0.0
2016-Jan-26 20:31N 51°16' E 004°21'0 0.0
2016-Jan-26 19:31N 51°16' E 004°21'0 0.0
2016-Jan-26 18:28N 51°16' E 004°21'0 0.0
2016-Jan-26 17:28N 51°16' E 004°21'0 0.0
2016-Jan-26 16:31N 51°16' E 004°21'0 0.0
2016-Jan-26 15:33N 51°16' E 004°21'5 4.8
2016-Jan-26 14:34N 51°21' E 004°18'0 0.3
2016-Jan-26 13:34N 51°21' E 004°17'1 1.2
2016-Jan-26 12:33N 51°21' E 004°15'9 9.2
2016-Jan-26 11:33N 51°25' E 004°02'1010.1
2016-Jan-26 10:33N 51°21' E 003°47'9 9.2
2016-Jan-26 09:34N 51°25' E 003°33'1212.1
2016-Jan-26 08:33N 51°24' E 003°14'1212.2
2016-Jan-26 07:33N 51°25' E 002°54'8 8.2
2016-Jan-26 06:32N 51°26' E 002°41'3 2.9
2016-Jan-26 05:30N 51°26' E 002°36'0 0.1
2016-Jan-26 04:30N 51°26' E 002°37'0 0.0
2016-Jan-26 03:33N 51°26' E 002°37'0 0.0
2016-Jan-26 02:33N 51°26' E 002°37'0 0.0
2016-Jan-26 01:24N 51°26' E 002°37'0 0.0
2016-Jan-26 00:30N 51°26' E 002°37'0 0.1
2016-Jan-25 22:30N 51°26' E 002°36'0 0.0
2016-Jan-25 21:18N 51°26' E 002°36'0 0.1
2016-Jan-25 19:30N 51°26' E 002°37'0 0.0
2016-Jan-25 18:24N 51°26' E 002°36'0 0.0
2016-Jan-25 17:33N 51°26' E 002°36'0 0.0
2016-Jan-25 16:27N 51°26' E 002°36'0 0.0
2016-Jan-25 15:18N 51°26' E 002°37'0 0.0
2016-Jan-25 14:30N 51°26' E 002°37'0 0.0
2016-Jan-25 13:27N 51°26' E 002°37'0 0.0
2016-Jan-25 12:24N 51°26' E 002°37'0 0.0
2016-Jan-25 11:30N 51°26' E 002°36'0 0.2
2016-Jan-25 10:33N 51°26' E 002°36'0 0.1
2016-Jan-25 09:33N 51°26' E 002°36'0 0.0
2016-Jan-25 08:33N 51°26' E 002°36'0 0.1
2016-Jan-25 07:33N 51°26' E 002°36'0 0.1
2016-Jan-25 06:33N 51°26' E 002°36'0 0.0
2016-Jan-25 04:33N 51°26' E 002°36'0 0.0
2016-Jan-25 03:27N 51°26' E 002°36'0 0.0
2016-Jan-25 02:27N 51°26' E 002°36'0 0.0
2016-Jan-25 01:27N 51°26' E 002°37'0 0.0
2016-Jan-24 23:30N 51°26' E 002°36'0 0.0
2016-Jan-24 17:24N 51°26' E 002°37'0 0.0
2016-Jan-24 16:09N 51°26' E 002°36'0 0.0
2016-Jan-24 13:27N 51°26' E 002°37'0 0.0
2016-Jan-24 12:27N 51°26' E 002°37'0 0.0
2016-Jan-24 11:30N 51°26' E 002°37'0 0.1
2016-Jan-24 08:18N 51°26' E 002°36'0 0.2
2016-Jan-24 07:09N 51°26' E 002°36'0 0.1
2016-Jan-24 06:21N 51°26' E 002°36'0 0.0
2016-Jan-24 05:22N 51°26' E 002°36'0 0.1
2016-Jan-24 04:32N 51°26' E 002°36'4 3.3
2016-Jan-24 03:22N 51°24' E 002°31'1012.6
2016-Jan-24 02:33N 51°18' E 002°18'1413.6
2016-Jan-24 01:33N 51°11' E 001°59'1515.2
2016-Jan-24 00:33N 51°03' E 001°38'1515.2
2016-Jan-23 23:33N 50°51' E 001°25'1414.1
2016-Jan-23 22:33N 50°38' E 001°15'3414.8
2016-Jan-23 20:14N 50°24' E 000°26'1116.3
2016-Jan-23 19:33N 50°21' E 000°09'1815.8
2016-Jan-23 18:24N 50°16' W 000°18'1415.2
2016-Jan-23 17:30N 50°13' W 000°39'4312.5
2016-Jan-23 14:04N 50°01' W 001°44'610.5
2016-Jan-23 13:30N 49°60' W 001°52'6012.2
2016-Jan-23 08:33N 49°40' W 003°21'1513.8
2016-Jan-23 07:30N 49°32' W 003°40'6913.6
2016-Jan-23 02:27N 48°57' W 005°10'1213.7
2016-Jan-23 01:34N 48°51' W 005°26'  
Track history (hours):
 
Tides and Currents Weather Stations Pressure Air Temp Water Temp Dewpoint Dewpoint Depression Visibility Wind Speed Wind Dir Waves Ship Positions

Iris Victoria

Last reported at 2016-Jan-31 23:30 UTC. Time now 2016-Feb-09 09:51 UTC.
Position N 50°24' W 000°34'.
Warning: this ship's position is 8 days out of date.

Length 228 m; draft 13.2 m.

Type: Tanker. MMSI: 538003876.

Date/timePositionNaut miles runAvg speedWind from/ knotsBaromVisibWave heightAir tempDewpointWater temp
2016-Jan-31 23:30N 50°24' W 000°34'10 9.9
2016-Jan-31 22:32N 50°26' W 000°19'1211.1
2016-Jan-31 21:29N 50°30' W 000°02'1111.8
2016-Jan-31 20:33N 50°33' E 000°15'1312.1
2016-Jan-31 19:30N 50°36' E 000°35'1111.8
2016-Jan-31 18:33N 50°42' E 000°49'1111.0
2016-Jan-31 17:33N 50°48' E 001°04'1010.3
2016-Jan-31 16:33N 50°54' E 001°17'10 9.6
2016-Jan-31 15:33N 51°01' E 001°27'1010.2
2016-Jan-31 14:33N 51°09' E 001°38'1111.3
2016-Jan-31 13:34N 51°18' E 001°49'1010.5
2016-Jan-31 12:34N 51°24' E 002°03'1211.4
2016-Jan-31 11:28N 51°21' E 002°22'1312.2
2016-Jan-31 10:26N 51°23' E 002°42'910.2
2016-Jan-31 09:33N 51°25' E 002°56'1312.8
2016-Jan-31 08:33N 51°25' E 003°16'1212.0
2016-Jan-31 07:34N 51°26' E 003°35'1010.2
2016-Jan-31 06:33N 51°21' E 003°50'9 8.8
2016-Jan-31 05:34N 51°26' E 004°02'7 7.2
2016-Jan-31 04:33N 51°23' E 004°13'4 4.0
2016-Jan-31 03:33N 51°21' E 004°17'0 0.5
2016-Jan-31 02:33N 51°20' E 004°18'4 4.3
2016-Jan-31 01:31N 51°16' E 004°21'0 0.0
2016-Jan-31 00:28N 51°16' E 004°21'0 0.0
2016-Jan-30 23:31N 51°16' E 004°21'0 0.0
2016-Jan-30 22:31N 51°16' E 004°21'0 0.0
2016-Jan-30 21:31N 51°16' E 004°21'0 0.0
2016-Jan-30 20:31N 51°16' E 004°21'0 0.0
2016-Jan-30 19:31N 51°16' E 004°21'0 0.0
2016-Jan-30 18:31N 51°16' E 004°21'0 0.0
2016-Jan-30 17:28N 51°16' E 004°21'0 0.0
2016-Jan-30 16:28N 51°16' E 004°21'0 0.0
2016-Jan-30 15:31N 51°16' E 004°21'0 0.0
2016-Jan-30 14:31N 51°16' E 004°21'0 0.0
2016-Jan-30 13:31N 51°16' E 004°21'0 0.0
2016-Jan-30 12:31N 51°16' E 004°21'0 0.0
2016-Jan-30 11:31N 51°16' E 004°21'0 0.0
2016-Jan-30 10:28N 51°16' E 004°21'0 0.0
2016-Jan-30 09:31N 51°16' E 004°21'0 0.0
2016-Jan-30 08:28N 51°16' E 004°21'0 0.0
2016-Jan-30 07:31N 51°16' E 004°21'0 0.0
2016-Jan-30 06:31N 51°16' E 004°21'0 0.0
2016-Jan-30 05:31N 51°16' E 004°21'0 0.0
2016-Jan-30 04:31N 51°16' E 004°21'0 0.0
2016-Jan-30 03:31N 51°16' E 004°21'0 0.0
2016-Jan-30 02:31N 51°16' E 004°21'0 0.0
2016-Jan-30 01:31N 51°16' E 004°21'0 0.0
2016-Jan-30 00:31N 51°16' E 004°21'0 0.0
2016-Jan-29 23:31N 51°16' E 004°21'0 0.0
2016-Jan-29 22:28N 51°16' E 004°21'0 0.0
2016-Jan-29 21:31N 51°16' E 004°21'0 0.0
2016-Jan-29 20:31N 51°16' E 004°21'0 0.0
2016-Jan-29 19:31N 51°16' E 004°21'0 0.0
2016-Jan-29 18:31N 51°16' E 004°21'0 0.0
2016-Jan-29 17:31N 51°16' E 004°21'0 0.0
2016-Jan-29 16:31N 51°16' E 004°21'0 0.0
2016-Jan-29 15:28N 51°16' E 004°21'0 0.0
2016-Jan-29 14:31N 51°16' E 004°21'0 0.0
2016-Jan-29 13:31N 51°16' E 004°21'0 0.0
2016-Jan-29 12:22N 51°16' E 004°21'0 0.0
2016-Jan-29 11:28N 51°16' E 004°21'0 0.0
2016-Jan-29 10:28N 51°16' E 004°21'0 0.0
2016-Jan-29 09:31N 51°16' E 004°21'0 0.0
2016-Jan-29 08:25N 51°16' E 004°21'0 0.0
2016-Jan-29 07:31N 51°16' E 004°21'0 0.0
2016-Jan-29 06:31N 51°16' E 004°21'0 0.0
2016-Jan-29 05:31N 51°16' E 004°21'0 0.0
2016-Jan-29 04:28N 51°16' E 004°21'0 0.0
2016-Jan-29 03:31N 51°16' E 004°21'0 0.0
2016-Jan-29 02:31N 51°16' E 004°21'0 0.0
2016-Jan-29 01:31N 51°16' E 004°21'0 0.0
2016-Jan-29 00:31N 51°16' E 004°21'0 0.0
2016-Jan-28 23:31N 51°16' E 004°21'0 0.0
2016-Jan-28 22:31N 51°16' E 004°21'0 0.0
2016-Jan-28 21:31N 51°16' E 004°21'0 0.0
2016-Jan-28 20:31N 51°16' E 004°21'0 0.0
2016-Jan-28 19:28N 51°16' E 004°21'0 0.0
2016-Jan-28 18:31N 51°16' E 004°21'0 0.0
2016-Jan-28 17:31N 51°16' E 004°21'0 0.0
2016-Jan-28 16:28N 51°16' E 004°21'0 0.0
2016-Jan-28 15:31N 51°16' E 004°21'0 0.0
2016-Jan-28 14:31N 51°16' E 004°21'0 0.0
2016-Jan-28 13:31N 51°16' E 004°21'0 0.0
2016-Jan-28 12:31N 51°16' E 004°21'0 0.0
2016-Jan-28 11:25N 51°16' E 004°21'0 0.0
2016-Jan-28 10:31N 51°16' E 004°21'0 0.0
2016-Jan-28 09:31N 51°16' E 004°21'0 0.0
2016-Jan-28 08:31N 51°16' E 004°21'0 0.0
2016-Jan-28 07:31N 51°16' E 004°21'0 0.0
2016-Jan-28 06:28N 51°16' E 004°21'0 0.0
2016-Jan-28 05:31N 51°16' E 004°21'0 0.0
2016-Jan-28 04:28N 51°16' E 004°21'0 0.0
2016-Jan-28 03:25N 51°16' E 004°21'0 0.0
2016-Jan-28 02:31N 51°16' E 004°21'0 0.0
2016-Jan-28 01:28N 51°16' E 004°21'0 0.0
2016-Jan-28 00:31N 51°16' E 004°21'0 0.0
2016-Jan-27 23:31N 51°16' E 004°21'0 0.0
2016-Jan-27 22:31N 51°16' E 004°21'0 0.0
2016-Jan-27 21:31N 51°16' E 004°21'0 0.0
2016-Jan-27 20:28N 51°16' E 004°21'0 0.0
2016-Jan-27 19:31N 51°16' E 004°21'0 0.0
2016-Jan-27 18:31N 51°16' E 004°21'0 0.0
2016-Jan-27 17:31N 51°16' E 004°21'0 0.0
2016-Jan-27 16:25N 51°16' E 004°21'0 0.0
2016-Jan-27 15:31N 51°16' E 004°21'0 0.0
2016-Jan-27 14:31N 51°16' E 004°21'0 0.0
2016-Jan-27 13:31N 51°16' E 004°21'0 0.0
2016-Jan-27 12:31N 51°16' E 004°21'0 0.0
2016-Jan-27 11:19N 51°16' E 004°21'0 0.0
2016-Jan-27 10:31N 51°16' E 004°21'0 0.0
2016-Jan-27 09:22N 51°16' E 004°21'0 0.0
2016-Jan-27 08:13N 51°16' E 004°21'0 0.0
2016-Jan-27 07:31N 51°16' E 004°21'0 0.0
2016-Jan-27 06:28N 51°16' E 004°21'0 0.0
2016-Jan-27 05:28N 51°16' E 004°21'0 0.0
2016-Jan-27 04:31N 51°16' E 004°21'0 0.0
2016-Jan-27 03:28N 51°16' E 004°21'0 0.0
2016-Jan-27 02:31N 51°16' E 004°21'0 0.0
2016-Jan-27 01:31N 51°16' E 004°21'0 0.0
2016-Jan-27 00:31N 51°16' E 004°21'0 0.0
2016-Jan-26 23:31N 51°16' E 004°21'0 0.0
2016-Jan-26 22:31N 51°16' E 004°21'0 0.0
2016-Jan-26 21:31N 51°16' E 004°21'0 0.0
2016-Jan-26 20:31N 51°16' E 004°21'0 0.0
2016-Jan-26 19:31N 51°16' E 004°21'0 0.0
2016-Jan-26 18:28N 51°16' E 004°21'0 0.0
2016-Jan-26 17:28N 51°16' E 004°21'0 0.0
2016-Jan-26 16:31N 51°16' E 004°21'0 0.0
2016-Jan-26 15:33N 51°16' E 004°21'5 4.8
2016-Jan-26 14:34N 51°21' E 004°18'0 0.3
2016-Jan-26 13:34N 51°21' E 004°17'1 1.2
2016-Jan-26 12:33N 51°21' E 004°15'9 9.2
2016-Jan-26 11:33N 51°25' E 004°02'1010.1
2016-Jan-26 10:33N 51°21' E 003°47'9 9.2
2016-Jan-26 09:34N 51°25' E 003°33'1212.1
2016-Jan-26 08:33N 51°24' E 003°14'1212.2
2016-Jan-26 07:33N 51°25' E 002°54'8 8.2
2016-Jan-26 06:32N 51°26' E 002°41'3 2.9
2016-Jan-26 05:30N 51°26' E 002°36'0 0.1
2016-Jan-26 04:30N 51°26' E 002°37'0 0.0
2016-Jan-26 03:33N 51°26' E 002°37'0 0.0
2016-Jan-26 02:33N 51°26' E 002°37'0 0.0
2016-Jan-26 01:24N 51°26' E 002°37'0 0.0
2016-Jan-26 00:30N 51°26' E 002°37'0 0.1
2016-Jan-25 22:30N 51°26' E 002°36'0 0.0
2016-Jan-25 21:18N 51°26' E 002°36'0 0.1
2016-Jan-25 19:30N 51°26' E 002°37'0 0.0
2016-Jan-25 18:24N 51°26' E 002°36'0 0.0
2016-Jan-25 17:33N 51°26' E 002°36'0 0.0
2016-Jan-25 16:27N 51°26' E 002°36'0 0.0
2016-Jan-25 15:18N 51°26' E 002°37'0 0.0
2016-Jan-25 14:30N 51°26' E 002°37'0 0.0
2016-Jan-25 13:27N 51°26' E 002°37'0 0.0
2016-Jan-25 12:24N 51°26' E 002°37'0 0.0
2016-Jan-25 11:30N 51°26' E 002°36'0 0.2
2016-Jan-25 10:33N 51°26' E 002°36'0 0.1
2016-Jan-25 09:33N 51°26' E 002°36'0 0.0
2016-Jan-25 08:33N 51°26' E 002°36'0 0.1
2016-Jan-25 07:33N 51°26' E 002°36'0 0.1
2016-Jan-25 06:33N 51°26' E 002°36'0 0.0
2016-Jan-25 04:33N 51°26' E 002°36'0 0.0
2016-Jan-25 03:27N 51°26' E 002°36'0 0.0
2016-Jan-25 02:27N 51°26' E 002°36'0 0.0
2016-Jan-25 01:27N 51°26' E 002°37'0 0.0
2016-Jan-24 23:30N 51°26' E 002°36'0 0.0
2016-Jan-24 17:24N 51°26' E 002°37'0 0.0
2016-Jan-24 16:09N 51°26' E 002°36'0 0.0
2016-Jan-24 13:27N 51°26' E 002°37'0 0.0
2016-Jan-24 12:27N 51°26' E 002°37'0 0.0
2016-Jan-24 11:30N 51°26' E 002°37'0 0.1
2016-Jan-24 08:18N 51°26' E 002°36'0 0.2
2016-Jan-24 07:09N 51°26' E 002°36'0 0.1
2016-Jan-24 06:21N 51°26' E 002°36'0 0.0
2016-Jan-24 05:22N 51°26' E 002°36'0 0.1
2016-Jan-24 04:32N 51°26' E 002°36'4 3.3
2016-Jan-24 03:22N 51°24' E 002°31'1012.6
2016-Jan-24 02:33N 51°18' E 002°18'1413.6
2016-Jan-24 01:33N 51°11' E 001°59'1515.2
2016-Jan-24 00:33N 51°03' E 001°38'1515.2
2016-Jan-23 23:33N 50°51' E 001°25'1414.1
2016-Jan-23 22:33N 50°38' E 001°15'3414.8
2016-Jan-23 20:14N 50°24' E 000°26'1116.3
2016-Jan-23 19:33N 50°21' E 000°09'1815.8
2016-Jan-23 18:24N 50°16' W 000°18'1415.2
2016-Jan-23 17:30N 50°13' W 000°39'4312.5
2016-Jan-23 14:04N 50°01' W 001°44'610.5
2016-Jan-23 13:30N 49°60' W 001°52'6012.2
2016-Jan-23 08:33N 49°40' W 003°21'1513.8
2016-Jan-23 07:30N 49°32' W 003°40'6913.6
2016-Jan-23 02:27N 48°57' W 005°10'1213.7
2016-Jan-23 01:34N 48°51' W 005°26'  

Dump ship's entire track history